createdAt,value
2023-02-16T00:00:45.476Z,16.00
2023-02-16T00:03:16.135Z,15.70
2023-02-16T00:05:42.825Z,15.40
2023-02-16T00:08:09.550Z,16.23
2023-02-16T00:10:37.527Z,16.97
2023-02-16T00:13:37.260Z,16.50
2023-02-16T00:16:04.112Z,15.53
2023-02-16T00:18:31.000Z,16.83
2023-02-16T00:20:58.193Z,16.17
2023-02-16T00:23:24.938Z,16.83
2023-02-16T00:25:51.663Z,17.07
2023-02-16T00:28:19.951Z,17.23
2023-02-16T00:30:46.900Z,16.03
2023-02-16T00:33:15.627Z,15.43
2023-02-16T00:35:42.937Z,15.43
2023-02-16T00:38:10.315Z,16.80
2023-02-16T00:40:37.148Z,16.50
2023-02-16T00:43:06.092Z,15.50
2023-02-16T00:45:36.328Z,16.30
2023-02-16T00:48:03.584Z,16.07
2023-02-16T00:50:31.879Z,15.83
2023-02-16T00:52:58.858Z,16.57
2023-02-16T00:55:27.575Z,16.10
2023-02-16T00:57:56.357Z,16.03
2023-02-16T01:00:24.432Z,15.67
2023-02-16T01:02:53.293Z,15.90
2023-02-16T01:05:20.220Z,15.83
2023-02-16T01:08:05.424Z,16.20
2023-02-16T01:10:52.789Z,16.67
2023-02-16T01:13:19.632Z,15.13
2023-02-16T01:15:46.410Z,16.57
2023-02-16T01:18:14.365Z,16.03
2023-02-16T01:20:41.045Z,16.10
2023-02-16T01:23:08.803Z,15.90
2023-02-16T01:25:36.494Z,16.53
2023-02-16T01:28:03.339Z,16.57
2023-02-16T01:30:30.037Z,16.80
2023-02-16T01:32:56.706Z,15.80
2023-02-16T01:35:28.193Z,16.50
2023-02-16T01:37:55.184Z,16.70
2023-02-16T01:40:37.177Z,17.03
2023-02-16T01:43:39.366Z,17.03
2023-02-16T01:46:10.965Z,16.67
2023-02-16T01:48:37.745Z,16.33
2023-02-16T01:51:06.690Z,16.83
2023-02-16T01:53:37.037Z,17.43
2023-02-16T01:56:05.883Z,15.93
2023-02-16T01:58:32.848Z,15.47
2023-02-16T02:01:00.046Z,16.67
2023-02-16T02:03:47.742Z,15.87
2023-02-16T02:06:34.899Z,16.13
2023-02-16T02:09:11.536Z,16.47
2023-02-16T02:11:57.509Z,17.10
2023-02-16T02:14:28.752Z,18.13
2023-02-16T02:16:57.227Z,17.07
2023-02-16T02:19:25.554Z,16.70
2023-02-16T02:22:20.840Z,17.87
2023-02-16T02:24:56.624Z,17.57
2023-02-16T02:27:28.634Z,19.00
2023-02-16T02:30:14.136Z,18.37
2023-02-16T02:32:40.824Z,17.90
2023-02-16T02:35:29.802Z,19.00
2023-02-16T02:38:00.473Z,18.13
2023-02-16T02:40:38.375Z,17.97
2023-02-16T02:43:08.361Z,18.13
2023-02-16T02:45:38.704Z,18.30
2023-02-16T02:48:05.365Z,18.50
2023-02-16T02:51:08.837Z,18.13
2023-02-16T02:53:43.200Z,17.97
2023-02-16T02:56:29.205Z,17.73
2023-02-16T02:59:21.157Z,18.43
2023-02-16T03:01:50.115Z,17.93
2023-02-16T03:04:18.094Z,17.10
2023-02-16T03:06:47.876Z,17.73
2023-02-16T03:09:15.345Z,16.80
2023-02-16T03:12:01.781Z,18.10
2023-02-16T03:14:31.230Z,18.03
2023-02-16T03:17:17.517Z,18.30
2023-02-16T03:20:04.428Z,18.17
2023-02-16T03:22:50.526Z,16.13
2023-02-16T03:25:35.761Z,16.27
2023-02-16T03:28:22.756Z,17.97
2023-02-16T03:30:50.312Z,17.07
2023-02-16T03:33:17.381Z,18.07
2023-02-16T03:35:44.847Z,16.37
2023-02-16T03:38:11.594Z,17.73
2023-02-16T03:40:40.994Z,17.20
2023-02-16T03:43:08.385Z,17.33
2023-02-16T03:45:36.310Z,17.27
2023-02-16T03:48:03.614Z,17.33
2023-02-16T03:50:30.345Z,17.07
2023-02-16T03:53:09.642Z,17.57
2023-02-16T03:55:43.550Z,17.80
2023-02-16T03:58:12.119Z,17.40
2023-02-16T04:00:39.354Z,17.13
2023-02-16T04:03:06.467Z,17.23
2023-02-16T04:05:33.315Z,17.27
2023-02-16T04:07:59.961Z,17.47
2023-02-16T04:10:26.607Z,17.50
2023-02-16T04:12:53.270Z,17.73
2023-02-16T04:15:21.207Z,16.87
2023-02-16T04:17:47.921Z,17.40
2023-02-16T04:20:17.541Z,17.50
2023-02-16T04:22:44.364Z,17.23
2023-02-16T04:25:10.965Z,16.90
2023-02-16T04:27:38.185Z,16.33
2023-02-16T04:30:05.478Z,16.90
2023-02-16T04:32:32.459Z,16.60
2023-02-16T04:34:59.226Z,17.30
2023-02-16T04:37:25.851Z,17.20
2023-02-16T04:39:52.486Z,17.10
2023-02-16T04:42:19.054Z,17.03
2023-02-16T04:44:46.223Z,17.50
2023-02-16T04:47:12.846Z,17.03
2023-02-16T04:49:39.633Z,17.13
2023-02-16T04:52:06.280Z,16.97
2023-02-16T04:54:33.451Z,16.80
2023-02-16T04:57:00.559Z,16.83
2023-02-16T04:59:27.241Z,16.60
2023-02-16T05:01:53.948Z,16.93
2023-02-16T05:04:21.018Z,16.37
2023-02-16T05:06:47.623Z,16.40
2023-02-16T05:09:14.623Z,17.23
2023-02-16T05:11:59.706Z,15.83
2023-02-16T05:14:42.844Z,15.53
2023-02-16T05:17:10.342Z,15.30
2023-02-16T05:19:37.558Z,16.77
2023-02-16T05:22:05.078Z,16.37
2023-02-16T05:24:31.642Z,16.07
2023-02-16T05:26:58.336Z,15.67
2023-02-16T05:29:24.934Z,15.77
2023-02-16T05:31:51.786Z,14.73
2023-02-16T05:34:18.585Z,15.37
2023-02-16T05:36:45.178Z,14.47
2023-02-16T05:39:11.822Z,15.43
2023-02-16T05:41:38.498Z,15.20
2023-02-16T05:44:05.380Z,15.83
2023-02-16T05:46:33.810Z,14.97
2023-02-16T05:49:01.030Z,14.77
2023-02-16T05:51:28.111Z,14.23
2023-02-16T05:53:54.820Z,14.20
2023-02-16T05:56:21.581Z,14.77
2023-02-16T05:58:48.408Z,15.00
2023-02-16T06:01:15.259Z,14.70
2023-02-16T06:03:42.147Z,14.50
2023-02-16T06:06:09.796Z,14.77
2023-02-16T06:08:36.855Z,14.27
2023-02-16T06:11:04.346Z,13.93
2023-02-16T06:13:31.278Z,14.87
2023-02-16T06:15:58.490Z,13.53
2023-02-16T06:18:25.810Z,14.80
2023-02-16T06:20:52.804Z,13.33
2023-02-16T06:23:19.390Z,13.17
2023-02-16T06:25:48.998Z,13.27
2023-02-16T06:28:16.025Z,14.50
2023-02-16T06:30:42.823Z,13.10
2023-02-16T06:33:09.504Z,12.97
2023-02-16T06:35:36.213Z,13.87
2023-02-16T06:38:02.848Z,13.03
2023-02-16T06:40:29.516Z,12.50
2023-02-16T06:42:56.266Z,13.07
2023-02-16T06:45:23.118Z,12.37
2023-02-16T06:47:50.167Z,12.70
2023-02-16T06:50:17.828Z,12.60
2023-02-16T06:52:44.536Z,12.30
2023-02-16T06:55:11.171Z,12.57
2023-02-16T06:57:37.798Z,12.60
2023-02-16T07:00:06.290Z,11.70
2023-02-16T07:02:32.952Z,11.57
2023-02-16T07:04:59.636Z,12.33
2023-02-16T07:07:26.340Z,12.53
2023-02-16T07:09:52.932Z,11.60
2023-02-16T07:12:19.625Z,11.70
2023-02-16T07:14:46.243Z,10.80
2023-02-16T07:17:12.882Z,10.83
2023-02-16T07:19:39.550Z,9.97
2023-02-16T07:22:06.297Z,10.87
2023-02-16T07:24:33.002Z,10.67
2023-02-16T07:26:59.707Z,10.47
2023-02-16T07:29:26.274Z,9.93
2023-02-16T07:31:53.638Z,10.73
2023-02-16T07:34:21.778Z,10.80
2023-02-16T07:36:48.663Z,10.37
2023-02-16T07:39:16.098Z,10.53
2023-02-16T07:41:42.751Z,10.33
2023-02-16T07:44:09.442Z,10.27
2023-02-16T07:46:36.445Z,9.73
2023-02-16T07:49:03.122Z,9.80
2023-02-16T07:51:30.936Z,11.00
2023-02-16T07:53:58.385Z,10.83
2023-02-16T07:56:26.910Z,10.23
2023-02-16T07:58:54.544Z,11.00
2023-02-16T08:01:21.562Z,10.20
2023-02-16T08:03:48.612Z,10.20
2023-02-16T08:06:15.343Z,11.40
2023-02-16T08:08:42.113Z,10.27
2023-02-16T08:11:12.219Z,10.80
2023-02-16T08:13:39.151Z,10.20
2023-02-16T08:16:10.976Z,10.97
2023-02-16T08:18:38.357Z,11.00
2023-02-16T08:21:09.891Z,11.33
2023-02-16T08:23:36.562Z,11.13
2023-02-16T08:26:09.828Z,11.97
2023-02-16T08:28:38.504Z,12.07
2023-02-16T08:31:06.170Z,12.53
2023-02-16T08:33:35.108Z,12.33
2023-02-16T08:36:02.520Z,11.73
2023-02-16T08:38:29.316Z,12.23
2023-02-16T08:40:56.075Z,12.13
2023-02-16T08:43:22.760Z,12.17
2023-02-16T08:45:49.586Z,11.80
2023-02-16T08:48:17.909Z,12.13
2023-02-16T08:50:47.193Z,12.30
2023-02-16T08:53:14.236Z,12.13
2023-02-16T08:55:41.190Z,12.03
2023-02-16T08:58:07.804Z,11.60
2023-02-16T09:00:34.381Z,11.43
2023-02-16T09:03:01.021Z,11.63
2023-02-16T09:05:31.167Z,12.10
2023-02-16T09:07:57.844Z,12.57
2023-02-16T09:10:24.859Z,12.63
2023-02-16T09:12:51.513Z,12.57
2023-02-16T09:15:18.149Z,12.40
2023-02-16T09:17:44.793Z,11.97
2023-02-16T09:20:12.376Z,12.50
2023-02-16T09:22:39.259Z,12.77
2023-02-16T09:25:07.729Z,12.17
2023-02-16T09:27:34.860Z,12.47
2023-02-16T09:30:01.536Z,12.27
2023-02-16T09:32:31.146Z,11.60
2023-02-16T09:34:57.859Z,11.50
2023-02-16T09:37:24.518Z,11.70
2023-02-16T09:39:51.467Z,12.43
2023-02-16T09:42:44.705Z,11.90
2023-02-16T09:45:14.070Z,12.27
2023-02-16T09:47:45.900Z,12.90
2023-02-16T09:50:27.752Z,12.10
2023-02-16T09:53:13.990Z,13.13
2023-02-16T09:55:48.878Z,12.83
2023-02-16T09:58:21.505Z,12.60
2023-02-16T10:00:51.401Z,12.83
2023-02-16T10:03:24.126Z,12.40
2023-02-16T10:06:01.499Z,12.13
2023-02-16T10:08:51.630Z,12.93
2023-02-16T10:11:46.642Z,12.53
2023-02-16T10:14:17.516Z,13.23
2023-02-16T10:17:02.251Z,11.47
2023-02-16T10:19:49.146Z,12.37
2023-02-16T10:22:17.907Z,13.57
2023-02-16T10:25:04.812Z,12.70
2023-02-16T10:27:45.670Z,13.27
2023-02-16T10:30:19.320Z,13.40
2023-02-16T10:32:54.726Z,12.67
2023-02-16T10:35:24.542Z,12.77
2023-02-16T10:38:03.532Z,12.70
2023-02-16T10:40:48.880Z,13.03
2023-02-16T10:43:20.657Z,13.07
2023-02-16T10:45:51.913Z,13.47
2023-02-16T10:48:21.161Z,13.93
2023-02-16T10:51:16.940Z,13.03
2023-02-16T10:53:48.384Z,13.43
2023-02-16T10:56:23.536Z,14.00
2023-02-16T10:58:51.085Z,13.63
2023-02-16T11:01:18.857Z,13.40
2023-02-16T11:03:47.812Z,13.80
2023-02-16T11:06:14.547Z,13.00
2023-02-16T11:08:52.016Z,13.00
2023-02-16T11:11:19.286Z,13.60
2023-02-16T11:13:49.594Z,13.10
2023-02-16T11:16:21.470Z,13.00
2023-02-16T11:18:57.327Z,13.13
2023-02-16T11:21:42.589Z,13.70
2023-02-16T11:24:12.152Z,13.67
2023-02-16T11:26:39.167Z,12.97
2023-02-16T11:29:19.100Z,13.87
2023-02-16T11:31:46.311Z,13.17
2023-02-16T11:34:15.568Z,13.10
2023-02-16T11:36:46.108Z,13.77
2023-02-16T11:39:26.284Z,13.77
2023-02-16T11:41:54.877Z,13.97
2023-02-16T11:44:21.756Z,13.40
2023-02-16T11:46:48.522Z,12.27
2023-02-16T11:49:27.526Z,13.60
2023-02-16T11:51:54.124Z,11.80
2023-02-16T11:54:21.268Z,13.43
2023-02-16T11:57:15.669Z,14.30
2023-02-16T11:59:42.553Z,14.77
2023-02-16T12:02:23.089Z,14.77
2023-02-16T12:04:52.757Z,15.27
2023-02-16T12:07:28.215Z,14.97
2023-02-16T12:10:15.535Z,14.23
2023-02-16T12:12:48.199Z,15.63
2023-02-16T12:15:15.234Z,15.50
2023-02-16T12:17:44.913Z,14.77
2023-02-16T12:20:15.070Z,15.67
2023-02-16T12:22:48.017Z,15.90
2023-02-16T12:25:22.624Z,15.80
2023-02-16T12:27:52.370Z,15.47
2023-02-16T12:30:25.440Z,15.83
2023-02-16T12:33:01.354Z,15.23
2023-02-16T12:35:54.734Z,15.00
2023-02-16T12:38:44.343Z,15.27
2023-02-16T12:41:17.053Z,15.23
2023-02-16T12:43:48.367Z,13.70
2023-02-16T12:46:26.002Z,14.97
2023-02-16T12:49:25.231Z,13.53
2023-02-16T12:52:08.470Z,13.37
2023-02-16T12:54:38.128Z,13.43
2023-02-16T12:57:08.047Z,12.20
2023-02-16T12:59:47.134Z,11.80
2023-02-16T13:02:22.133Z,11.77
2023-02-16T13:05:06.368Z,11.67
2023-02-16T13:07:37.460Z,11.57
2023-02-16T13:10:22.761Z,11.80
2023-02-16T13:12:52.585Z,12.03
2023-02-16T13:15:22.725Z,12.83
2023-02-16T13:17:56.061Z,12.17
2023-02-16T13:20:23.648Z,11.47
2023-02-16T13:23:02.507Z,12.07
2023-02-16T13:25:49.864Z,12.90
2023-02-16T13:28:31.577Z,12.53
2023-02-16T13:31:15.531Z,12.30
2023-02-16T13:33:55.422Z,11.67
2023-02-16T13:36:43.029Z,10.80
2023-02-16T13:39:22.392Z,11.53
2023-02-16T13:41:58.706Z,9.63
2023-02-16T13:44:34.943Z,10.70
2023-02-16T13:47:02.777Z,10.23
2023-02-16T13:49:37.328Z,10.37
2023-02-16T13:52:04.822Z,10.03
2023-02-16T13:54:36.014Z,9.90
2023-02-16T13:57:05.627Z,10.70
2023-02-16T13:59:47.480Z,9.13
2023-02-16T14:02:34.083Z,9.63
2023-02-16T14:05:01.770Z,9.30
2023-02-16T14:07:33.183Z,9.17
2023-02-16T14:10:00.126Z,8.57
2023-02-16T14:12:31.918Z,7.27
2023-02-16T14:15:00.936Z,7.17
2023-02-16T14:17:29.359Z,8.63
2023-02-16T14:20:15.821Z,8.40
2023-02-16T14:22:45.533Z,8.37
2023-02-16T14:25:24.478Z,8.20
2023-02-16T14:27:57.239Z,7.37
2023-02-16T14:30:42.534Z,7.80
2023-02-16T14:33:12.301Z,7.10
2023-02-16T14:35:41.238Z,7.87
2023-02-16T14:38:17.449Z,6.63
2023-02-16T14:41:00.746Z,6.00
2023-02-16T14:43:35.468Z,6.73
2023-02-16T14:46:26.068Z,6.03
2023-02-16T14:49:13.176Z,7.03
2023-02-16T14:51:57.816Z,5.70
2023-02-16T14:54:27.635Z,6.23
2023-02-16T14:56:57.377Z,6.67
2023-02-16T14:59:29.674Z,6.20
2023-02-16T15:01:56.966Z,6.57
2023-02-16T15:04:30.744Z,6.80
2023-02-16T15:06:58.754Z,6.10
2023-02-16T15:09:35.270Z,6.57
2023-02-16T15:12:22.300Z,6.60
2023-02-16T15:14:59.190Z,5.27
2023-02-16T15:17:33.985Z,7.47
2023-02-16T15:20:20.556Z,6.37
2023-02-16T15:22:51.317Z,6.00
2023-02-16T15:25:23.470Z,5.27
2023-02-16T15:27:59.194Z,5.57
2023-02-16T15:30:36.573Z,5.23
2023-02-16T15:33:07.648Z,5.70
2023-02-16T15:35:36.875Z,5.17
2023-02-16T15:38:06.086Z,5.60
2023-02-16T15:40:35.123Z,5.17
2023-02-16T15:43:22.407Z,5.50
2023-02-16T15:45:50.383Z,6.07
2023-02-16T15:48:17.098Z,5.47
2023-02-16T15:50:45.038Z,6.30
2023-02-16T15:53:13.234Z,6.43
2023-02-16T15:55:44.715Z,5.60
2023-02-16T15:58:14.853Z,5.67
2023-02-16T16:00:43.675Z,6.00
2023-02-16T16:03:14.368Z,5.63
2023-02-16T16:05:42.329Z,6.03
2023-02-16T16:08:14.005Z,5.43
2023-02-16T16:10:42.077Z,5.60
2023-02-16T16:13:15.422Z,5.40
2023-02-16T16:15:45.052Z,5.70
2023-02-16T16:18:30.859Z,5.83
2023-02-16T16:21:00.890Z,6.03
2023-02-16T16:23:28.494Z,6.30
2023-02-16T16:25:55.667Z,6.73
2023-02-16T16:28:28.475Z,6.53
2023-02-16T16:31:14.959Z,6.10
2023-02-16T16:33:51.720Z,5.83
2023-02-16T16:36:18.636Z,6.33
2023-02-16T16:38:45.972Z,5.87
2023-02-16T16:41:27.754Z,6.13
2023-02-16T16:43:57.634Z,5.80
2023-02-16T16:46:28.256Z,5.13
2023-02-16T16:49:03.541Z,6.00
2023-02-16T16:51:32.893Z,5.13
2023-02-16T16:54:05.582Z,5.70
2023-02-16T16:56:35.908Z,5.63
2023-02-16T16:59:02.630Z,5.27
2023-02-16T17:01:30.174Z,5.37
2023-02-16T17:03:57.053Z,6.23
2023-02-16T17:06:24.103Z,5.97
2023-02-16T17:08:50.926Z,5.67
2023-02-16T17:11:27.988Z,5.33
2023-02-16T17:13:55.006Z,5.60
2023-02-16T17:16:24.747Z,4.87
2023-02-16T17:18:51.653Z,5.00
2023-02-16T17:21:19.387Z,4.83
2023-02-16T17:23:52.876Z,4.97
2023-02-16T17:26:20.881Z,4.63
2023-02-16T17:28:47.832Z,4.67
2023-02-16T17:31:14.601Z,4.50
2023-02-16T17:33:41.307Z,4.83
2023-02-16T17:36:11.700Z,4.57
2023-02-16T17:38:38.297Z,3.97
2023-02-16T17:41:04.946Z,4.37
2023-02-16T17:43:31.607Z,3.90
2023-02-16T17:46:01.330Z,3.60
2023-02-16T17:48:30.995Z,3.30
2023-02-16T17:50:57.814Z,3.50
2023-02-16T17:53:26.452Z,3.53
2023-02-16T17:55:54.335Z,3.60
2023-02-16T17:58:22.106Z,3.87
2023-02-16T18:00:48.964Z,4.20
2023-02-16T18:03:15.814Z,3.77
2023-02-16T18:05:42.515Z,3.50
2023-02-16T18:08:10.340Z,3.80
2023-02-16T18:10:40.038Z,3.70
2023-02-16T18:13:07.297Z,3.80
2023-02-16T18:15:34.425Z,3.37
2023-02-16T18:18:01.117Z,4.03
2023-02-16T18:20:28.002Z,4.10
2023-02-16T18:22:54.651Z,4.87
2023-02-16T18:25:21.383Z,4.27
2023-02-16T18:27:49.340Z,4.27
2023-02-16T18:30:16.718Z,5.17
2023-02-16T18:32:45.072Z,4.90
2023-02-16T18:35:12.815Z,5.20
2023-02-16T18:37:39.738Z,5.47
2023-02-16T18:40:08.587Z,6.10
2023-02-16T18:42:35.602Z,5.67
2023-02-16T18:45:02.363Z,6.20
2023-02-16T18:47:28.980Z,6.27
2023-02-16T18:49:56.733Z,6.40
2023-02-16T18:52:23.522Z,7.33
2023-02-16T18:54:50.889Z,7.53
2023-02-16T18:57:17.625Z,8.23
2023-02-16T18:59:44.318Z,8.03
2023-02-16T19:02:11.666Z,8.03
2023-02-16T19:04:38.440Z,7.97
2023-02-16T19:07:06.831Z,8.57
2023-02-16T19:09:33.493Z,9.07
2023-02-16T19:12:00.147Z,8.80
2023-02-16T19:14:26.801Z,8.47
2023-02-16T19:16:53.616Z,9.53
2023-02-16T19:19:20.246Z,9.87
2023-02-16T19:21:48.698Z,9.50
2023-02-16T19:24:15.318Z,9.57
2023-02-16T19:26:41.988Z,9.53
2023-02-16T19:29:10.590Z,9.47
2023-02-16T19:31:37.391Z,10.17
2023-02-16T19:34:04.152Z,9.57
2023-02-16T19:36:32.081Z,9.70
2023-02-16T19:38:58.889Z,9.70
2023-02-16T19:41:27.808Z,8.83
2023-02-16T19:43:54.720Z,9.83
2023-02-16T19:46:21.946Z,9.50
2023-02-16T19:48:49.012Z,10.63
2023-02-16T19:51:15.968Z,10.90
2023-02-16T19:53:43.076Z,10.33
2023-02-16T19:56:12.477Z,10.43
2023-02-16T19:58:39.118Z,9.60
2023-02-16T20:01:07.211Z,9.73
2023-02-16T20:03:34.166Z,10.60
2023-02-16T20:06:01.023Z,10.63
2023-02-16T20:08:27.709Z,10.87
2023-02-16T20:10:54.693Z,11.00
2023-02-16T20:13:21.852Z,10.77
2023-02-16T20:15:48.612Z,10.57
2023-02-16T20:18:15.585Z,10.40
2023-02-16T20:20:42.230Z,11.10
2023-02-16T20:23:09.240Z,11.23
2023-02-16T20:25:38.953Z,11.53
2023-02-16T20:28:05.629Z,11.50
2023-02-16T20:30:32.422Z,11.57
2023-02-16T20:32:59.177Z,11.10
2023-02-16T20:35:25.905Z,10.90
2023-02-16T20:37:54.132Z,11.30
2023-02-16T20:40:22.639Z,10.93
2023-02-16T20:42:49.383Z,10.50
2023-02-16T20:45:16.196Z,11.43
2023-02-16T20:47:42.813Z,10.00
2023-02-16T20:50:09.856Z,10.13
2023-02-16T20:52:36.513Z,11.93
2023-02-16T20:55:03.371Z,10.70
2023-02-16T20:57:30.332Z,11.03
2023-02-16T20:59:57.034Z,11.13
2023-02-16T21:02:24.989Z,11.37
2023-02-16T21:04:51.665Z,11.27
2023-02-16T21:07:18.376Z,11.07
2023-02-16T21:09:45.021Z,10.50
2023-02-16T21:12:12.101Z,10.63
2023-02-16T21:14:41.535Z,10.83
2023-02-16T21:17:08.178Z,10.97
2023-02-16T21:19:34.837Z,10.93
2023-02-16T21:22:01.648Z,9.13
2023-02-16T21:24:28.477Z,9.17
2023-02-16T21:26:55.107Z,9.43
2023-02-16T21:29:22.191Z,10.50
2023-02-16T21:31:48.911Z,10.23
2023-02-16T21:34:15.655Z,9.93
2023-02-16T21:36:42.419Z,10.57
2023-02-16T21:39:09.139Z,10.20
2023-02-16T21:41:36.123Z,9.67
2023-02-16T21:44:02.810Z,7.93
2023-02-16T21:46:30.883Z,9.13
2023-02-16T21:48:57.879Z,9.13
2023-02-16T21:51:29.699Z,8.27
2023-02-16T21:53:56.798Z,8.07
2023-02-16T21:56:26.346Z,9.13
2023-02-16T21:58:53.324Z,9.20
2023-02-16T22:01:21.073Z,9.03
2023-02-16T22:03:49.137Z,8.97
2023-02-16T22:06:15.823Z,8.63
2023-02-16T22:08:42.498Z,9.37
2023-02-16T22:11:13.616Z,9.83
2023-02-16T22:13:40.645Z,10.70
2023-02-16T22:16:11.147Z,9.43
2023-02-16T22:18:38.084Z,9.40
2023-02-16T22:21:05.468Z,10.07
2023-02-16T22:23:32.078Z,8.80
2023-02-16T22:25:59.074Z,10.03
2023-02-16T22:28:25.942Z,9.37
2023-02-16T22:30:52.681Z,9.73
2023-02-16T22:33:19.428Z,9.33
2023-02-16T22:35:46.224Z,9.73
2023-02-16T22:38:12.910Z,9.20
2023-02-16T22:40:39.513Z,9.80
2023-02-16T22:43:06.214Z,9.63
2023-02-16T22:45:34.603Z,9.97
2023-02-16T22:48:01.325Z,9.63
2023-02-16T22:50:27.949Z,9.60
2023-02-16T22:52:54.660Z,8.80
2023-02-16T22:55:21.594Z,8.93
2023-02-16T22:57:48.176Z,9.20
2023-02-16T23:00:15.742Z,8.80
2023-02-16T23:02:42.583Z,9.23
2023-02-16T23:05:09.320Z,8.73
2023-02-16T23:07:36.025Z,9.10
2023-02-16T23:10:02.714Z,8.57
2023-02-16T23:12:29.650Z,8.80
2023-02-16T23:14:56.214Z,8.77
2023-02-16T23:17:22.818Z,8.03
2023-02-16T23:19:50.480Z,9.10
2023-02-16T23:22:17.076Z,8.80
2023-02-16T23:24:43.718Z,8.50
2023-02-16T23:27:10.297Z,7.43
2023-02-16T23:29:36.921Z,7.90
2023-02-16T23:32:04.792Z,7.87
2023-02-16T23:34:31.596Z,7.70
2023-02-16T23:36:58.176Z,8.13
2023-02-16T23:39:24.815Z,8.90
2023-02-16T23:41:51.394Z,9.07
2023-02-16T23:44:18.034Z,9.30
2023-02-16T23:46:44.635Z,7.87
2023-02-16T23:49:11.320Z,8.17
2023-02-16T23:51:38.029Z,8.60
2023-02-16T23:54:04.778Z,7.87
2023-02-16T23:56:31.617Z,8.83
2023-02-16T23:58:59.495Z,8.27
